sensor_id;sensor_type;location;lat;lon;timestamp;pressure;altitude;pressure_sealevel;temperature;humidity
36284;BME280;56085;48.910;9.478;2022-11-20T00:00:08;97684.88;;;4.46;97.06
36284;BME280;56085;48.910;9.478;2022-11-20T00:02:34;97684.53;;;4.47;96.50
36284;BME280;56085;48.910;9.478;2022-11-20T00:04:59;97682.59;;;4.48;96.14
36284;BME280;56085;48.910;9.478;2022-11-20T00:07:24;97683.19;;;4.53;96.90
36284;BME280;56085;48.910;9.478;2022-11-20T00:09:50;97684.81;;;4.54;96.98
36284;BME280;56085;48.910;9.478;2022-11-20T00:12:15;97689.44;;;4.54;97.11
36284;BME280;56085;48.910;9.478;2022-11-20T00:14:41;97687.53;;;4.54;96.96
36284;BME280;56085;48.910;9.478;2022-11-20T00:17:06;97681.59;;;4.52;96.50
36284;BME280;56085;48.910;9.478;2022-11-20T00:19:32;97694.28;;;4.57;97.13
36284;BME280;56085;48.910;9.478;2022-11-20T00:21:57;97688.31;;;4.55;96.57
36284;BME280;56085;48.910;9.478;2022-11-20T00:24:23;97691.16;;;4.46;97.23
36284;BME280;56085;48.910;9.478;2022-11-20T00:26:48;97686.16;;;4.48;97.32
36284;BME280;56085;48.910;9.478;2022-11-20T00:29:13;97689.53;;;4.45;96.94
36284;BME280;56085;48.910;9.478;2022-11-20T00:31:38;97672.31;;;4.45;97.15
36284;BME280;56085;48.910;9.478;2022-11-20T00:34:04;97684.19;;;4.49;96.92
36284;BME280;56085;48.910;9.478;2022-11-20T00:36:32;97681.81;;;4.47;97.12
36284;BME280;56085;48.910;9.478;2022-11-20T00:38:58;97681.00;;;4.47;96.77
36284;BME280;56085;48.910;9.478;2022-11-20T00:41:25;97677.47;;;4.46;97.02
36284;BME280;56085;48.910;9.478;2022-11-20T00:43:52;97681.66;;;4.44;97.29
36284;BME280;56085;48.910;9.478;2022-11-20T00:46:20;97684.06;;;4.45;96.96
36284;BME280;56085;48.910;9.478;2022-11-20T00:48:46;97678.72;;;4.49;97.04
36284;BME280;56085;48.910;9.478;2022-11-20T00:51:13;97671.78;;;4.51;97.17
36284;BME280;56085;48.910;9.478;2022-11-20T00:53:39;97679.19;;;4.51;96.95
36284;BME280;56085;48.910;9.478;2022-11-20T00:56:07;97690.94;;;4.51;97.21
36284;BME280;56085;48.910;9.478;2022-11-20T00:58:36;97693.81;;;4.55;97.24
36284;BME280;56085;48.910;9.478;2022-11-20T01:01:07;97697.03;;;4.57;97.55
36284;BME280;56085;48.910;9.478;2022-11-20T01:03:38;97693.69;;;4.51;97.55
36284;BME280;56085;48.910;9.478;2022-11-20T01:06:15;97691.41;;;4.53;96.99
36284;BME280;56085;48.910;9.478;2022-11-20T01:08:41;97702.00;;;4.55;96.89
36284;BME280;56085;48.910;9.478;2022-11-20T01:11:13;97689.13;;;4.55;97.30
36284;BME280;56085;48.910;9.478;2022-11-20T01:13:38;97697.34;;;4.55;97.48
36284;BME280;56085;48.910;9.478;2022-11-20T01:16:13;97697.03;;;4.57;97.16
36284;BME280;56085;48.910;9.478;2022-11-20T01:18:41;97701.69;;;4.57;97.20
36284;BME280;56085;48.910;9.478;2022-11-20T01:21:12;97697.66;;;4.54;97.43
36284;BME280;56085;48.910;9.478;2022-11-20T01:23:40;97705.25;;;4.57;97.00
36284;BME280;56085;48.910;9.478;2022-11-20T01:26:09;97703.75;;;4.60;97.03
36284;BME280;56085;48.910;9.478;2022-11-20T01:28:35;97711.16;;;4.59;97.42
36284;BME280;56085;48.910;9.478;2022-11-20T01:31:00;97704.75;;;4.55;97.40
36284;BME280;56085;48.910;9.478;2022-11-20T01:33:26;97704.31;;;4.53;97.58
36284;BME280;56085;48.910;9.478;2022-11-20T01:35:52;97695.75;;;4.54;97.43
36284;BME280;56085;48.910;9.478;2022-11-20T01:38:17;97707.84;;;4.53;97.22
36284;BME280;56085;48.910;9.478;2022-11-20T01:40:43;97706.69;;;4.54;98.00
36284;BME280;56085;48.910;9.478;2022-11-20T01:43:19;97706.69;;;4.54;97.55
36284;BME280;56085;48.910;9.478;2022-11-20T01:48:35;97700.56;;;4.58;98.01
36284;BME280;56085;48.910;9.478;2022-11-20T01:51:04;97699.44;;;4.59;98.06
36284;BME280;56085;48.910;9.478;2022-11-20T01:53:32;97693.81;;;4.55;97.69
36284;BME280;56085;48.910;9.478;2022-11-20T01:56:00;97693.47;;;4.57;97.21
36284;BME280;56085;48.910;9.478;2022-11-20T01:58:32;97690.00;;;4.47;97.26
36284;BME280;56085;48.910;9.478;2022-11-20T02:00:59;97692.06;;;4.50;97.19
36284;BME280;56085;48.910;9.478;2022-11-20T02:03:24;97691.63;;;4.48;97.73
36284;BME280;56085;48.910;9.478;2022-11-20T02:06:02;97687.94;;;4.44;97.93
36284;BME280;56085;48.910;9.478;2022-11-20T02:08:30;97682.13;;;4.46;98.01
36284;BME280;56085;48.910;9.478;2022-11-20T02:10:56;97686.78;;;4.45;97.78
36284;BME280;56085;48.910;9.478;2022-11-20T02:13:21;97681.00;;;4.47;97.20
36284;BME280;56085;48.910;9.478;2022-11-20T02:16:09;97687.72;;;4.49;98.03
36284;BME280;56085;48.910;9.478;2022-11-20T02:18:35;97683.88;;;4.50;97.75
36284;BME280;56085;48.910;9.478;2022-11-20T02:21:11;97679.66;;;4.53;97.79
36284;BME280;56085;48.910;9.478;2022-11-20T02:26:28;97685.94;;;4.53;98.56
36284;BME280;56085;48.910;9.478;2022-11-20T02:28:54;97693.47;;;4.57;98.10
36284;BME280;56085;48.910;9.478;2022-11-20T02:31:20;97690.63;;;4.53;97.94
36284;BME280;56085;48.910;9.478;2022-11-20T02:33:45;97686.72;;;4.54;97.83
36284;BME280;56085;48.910;9.478;2022-11-20T02:36:14;97682.66;;;4.60;97.72
36284;BME280;56085;48.910;9.478;2022-11-20T02:38:41;97684.25;;;4.61;98.60
36284;BME280;56085;48.910;9.478;2022-11-20T02:41:07;97687.78;;;4.62;97.97
36284;BME280;56085;48.910;9.478;2022-11-20T02:43:32;97691.00;;;4.64;98.09
36284;BME280;56085;48.910;9.478;2022-11-20T02:45:57;97691.00;;;4.64;97.63
36284;BME280;56085;48.910;9.478;2022-11-20T02:48:23;97694.41;;;4.61;98.33
36284;BME280;56085;48.910;9.478;2022-11-20T02:50:48;97697.13;;;4.61;98.26
36284;BME280;56085;48.910;9.478;2022-11-20T02:53:13;97688.59;;;4.62;98.29
36284;BME280;56085;48.910;9.478;2022-11-20T02:55:38;97686.06;;;4.57;98.40
36284;BME280;56085;48.910;9.478;2022-11-20T02:58:04;97684.25;;;4.61;98.26
36284;BME280;56085;48.910;9.478;2022-11-20T03:00:29;97690.66;;;4.65;98.22
36284;BME280;56085;48.910;9.478;2022-11-20T03:02:55;97689.84;;;4.65;98.67
36284;BME280;56085;48.910;9.478;2022-11-20T03:05:20;97687.91;;;4.65;98.79
36284;BME280;56085;48.910;9.478;2022-11-20T03:07:45;97683.56;;;4.64;98.31
36284;BME280;56085;48.910;9.478;2022-11-20T03:10:11;97689.84;;;4.65;98.67
36284;BME280;56085;48.910;9.478;2022-11-20T03:12:36;97688.91;;;4.61;98.38
36284;BME280;56085;48.910;9.478;2022-11-20T03:15:01;97690.88;;;4.60;97.97
36284;BME280;56085;48.910;9.478;2022-11-20T03:17:27;97688.59;;;4.62;98.46
36284;BME280;56085;48.910;9.478;2022-11-20T03:19:54;97681.50;;;4.61;98.91
36284;BME280;56085;48.910;9.478;2022-11-20T03:22:19;97672.50;;;4.61;98.43
36284;BME280;56085;48.910;9.478;2022-11-20T03:24:44;97667.94;;;4.65;98.42
36284;BME280;56085;48.910;9.478;2022-11-20T03:27:10;97677.63;;;4.62;97.82
36284;BME280;56085;48.910;9.478;2022-11-20T03:29:35;97674.34;;;4.69;97.84
36284;BME280;56085;48.910;9.478;2022-11-20T03:32:00;97672.41;;;4.69;97.76
36284;BME280;56085;48.910;9.478;2022-11-20T03:34:26;97672.53;;;4.73;98.57
36284;BME280;56085;48.910;9.478;2022-11-20T03:36:51;97670.59;;;4.74;98.00
36284;BME280;56085;48.910;9.478;2022-11-20T03:39:16;97678.94;;;4.77;98.14
36284;BME280;56085;48.910;9.478;2022-11-20T03:41:42;97669.13;;;4.76;97.75
36284;BME280;56085;48.910;9.478;2022-11-20T03:44:09;97671.88;;;4.76;97.94
36284;BME280;56085;48.910;9.478;2022-11-20T03:46:35;97667.19;;;4.77;97.58
36284;BME280;56085;48.910;9.478;2022-11-20T03:49:00;97667.03;;;4.73;97.85
36284;BME280;56085;48.910;9.478;2022-11-20T03:51:28;97667.38;;;4.71;97.56
36284;BME280;56085;48.910;9.478;2022-11-20T03:53:58;97663.19;;;4.74;97.59
36284;BME280;56085;48.910;9.478;2022-11-20T03:56:25;97666.06;;;4.78;97.32
36284;BME280;56085;48.910;9.478;2022-11-20T03:58:51;97662.50;;;4.77;97.50
36284;BME280;56085;48.910;9.478;2022-11-20T04:01:22;97659.66;;;4.74;97.74
36284;BME280;56085;48.910;9.478;2022-11-20T04:03:49;97667.03;;;4.73;97.09
36284;BME280;56085;48.910;9.478;2022-11-20T04:06:22;97659.75;;;4.77;97.50
36284;BME280;56085;48.910;9.478;2022-11-20T04:08:48;97664.09;;;4.78;96.88
36284;BME280;56085;48.910;9.478;2022-11-20T04:11:18;97659.06;;;4.80;97.00
36284;BME280;56085;48.910;9.478;2022-11-20T04:13:48;97671.66;;;4.81;97.62
36284;BME280;56085;48.910;9.478;2022-11-20T04:16:14;97672.44;;;4.82;97.32
36284;BME280;56085;48.910;9.478;2022-11-20T04:18:40;97662.28;;;4.82;96.70
36284;BME280;56085;48.910;9.478;2022-11-20T04:21:06;97664.22;;;4.82;96.76
36284;BME280;56085;48.910;9.478;2022-11-20T04:23:31;97662.28;;;4.82;97.14
36284;BME280;56085;48.910;9.478;2022-11-20T04:26:01;97650.06;;;4.80;96.66
36284;BME280;56085;48.910;9.478;2022-11-20T04:28:27;97659.56;;;4.82;96.70
36284;BME280;56085;48.910;9.478;2022-11-20T04:30:52;97658.44;;;4.83;96.79
36284;BME280;56085;48.910;9.478;2022-11-20T04:33:18;97660.50;;;4.86;96.42
36284;BME280;56085;48.910;9.478;2022-11-20T04:35:45;97647.13;;;4.85;96.60
36284;BME280;56085;48.910;9.478;2022-11-20T04:38:12;97661.97;;;4.84;96.33
36284;BME280;56085;48.910;9.478;2022-11-20T04:40:37;97658.53;;;4.87;96.00
36284;BME280;56085;48.910;9.478;2022-11-20T04:43:03;97663.03;;;5.04;96.49
36284;BME280;56085;48.910;9.478;2022-11-20T04:45:28;97658.22;;;5.01;96.32
36284;BME280;56085;48.910;9.478;2022-11-20T04:47:53;97663.13;;;4.95;96.00
36284;BME280;56085;48.910;9.478;2022-11-20T04:50:18;97665.38;;;4.93;96.56
36284;BME280;56085;48.910;9.478;2022-11-20T04:52:44;97663.00;;;4.92;95.94
36284;BME280;56085;48.910;9.478;2022-11-20T04:55:09;97664.94;;;4.91;95.94
36284;BME280;56085;48.910;9.478;2022-11-20T04:57:35;97659.31;;;4.87;95.77
36284;BME280;56085;48.910;9.478;2022-11-20T05:00:00;97658.66;;;4.90;95.63
36284;BME280;56085;48.910;9.478;2022-11-20T05:02:25;97669.16;;;4.88;96.20
36284;BME280;56085;48.910;9.478;2022-11-20T05:04:50;97660.59;;;4.90;96.13
36284;BME280;56085;48.910;9.478;2022-11-20T05:07:16;97664.59;;;4.93;95.61
36284;BME280;56085;48.910;9.478;2022-11-20T05:09:41;97655.13;;;4.90;95.36
36284;BME280;56085;48.910;9.478;2022-11-20T05:12:08;97662.88;;;4.88;95.23
36284;BME280;56085;48.910;9.478;2022-11-20T05:14:34;97660.94;;;4.88;96.11
36284;BME280;56085;48.910;9.478;2022-11-20T05:16:59;97662.06;;;4.87;95.17
36284;BME280;56085;48.910;9.478;2022-11-20T05:19:24;97656.59;;;4.87;95.63
36284;BME280;56085;48.910;9.478;2022-11-20T05:21:50;97659.31;;;4.87;95.46
36284;BME280;56085;48.910;9.478;2022-11-20T05:24:15;97663.66;;;4.88;95.39
36284;BME280;56085;48.910;9.478;2022-11-20T05:26:40;97655.47;;;4.88;95.01
36284;BME280;56085;48.910;9.478;2022-11-20T05:29:06;97664.13;;;4.90;94.87
36284;BME280;56085;48.910;9.478;2022-11-20T05:31:31;97665.38;;;4.93;95.38
36284;BME280;56085;48.910;9.478;2022-11-20T05:33:57;97658.97;;;4.89;95.00
36284;BME280;56085;48.910;9.478;2022-11-20T05:36:22;97662.53;;;4.89;95.03
36284;BME280;56085;48.910;9.478;2022-11-20T05:38:47;97656.59;;;4.87;94.45
36284;BME280;56085;48.910;9.478;2022-11-20T05:41:15;97655.47;;;4.88;94.88
36284;BME280;56085;48.910;9.478;2022-11-20T05:43:43;97656.25;;;4.89;94.42
36284;BME280;56085;48.910;9.478;2022-11-20T05:46:09;97651.94;;;4.88;94.78
36284;BME280;56085;48.910;9.478;2022-11-20T05:48:36;97652.72;;;4.88;95.01
36284;BME280;56085;48.910;9.478;2022-11-20T05:51:04;97651.94;;;4.88;94.73
36284;BME280;56085;48.910;9.478;2022-11-20T05:53:29;97659.47;;;4.91;94.20
36284;BME280;56085;48.910;9.478;2022-11-20T05:56:06;97662.06;;;4.87;94.41
36284;BME280;56085;48.910;9.478;2022-11-20T05:58:32;97656.13;;;4.85;94.98
36284;BME280;56085;48.910;9.478;2022-11-20T06:01:08;97662.41;;;4.86;94.72
36284;BME280;56085;48.910;9.478;2022-11-20T06:03:33;97652.59;;;4.85;94.61
36284;BME280;56085;48.910;9.478;2022-11-20T06:05:59;97651.78;;;4.84;94.49
36284;BME280;56085;48.910;9.478;2022-11-20T06:08:25;97652.94;;;4.83;94.39
36284;BME280;56085;48.910;9.478;2022-11-20T06:10:50;97650.53;;;4.82;94.07
36284;BME280;56085;48.910;9.478;2022-11-20T06:13:15;97645.72;;;4.79;94.09
36284;BME280;56085;48.910;9.478;2022-11-20T06:15:41;97649.72;;;4.81;94.35
36284;BME280;56085;48.910;9.478;2022-11-20T06:18:06;97648.25;;;4.84;94.47
36284;BME280;56085;48.910;9.478;2022-11-20T06:20:31;97647.91;;;4.85;93.62
36284;BME280;56085;48.910;9.478;2022-11-20T06:22:57;97649.53;;;4.86;93.99
36284;BME280;56085;48.910;9.478;2022-11-20T06:25:22;97642.44;;;4.85;93.84
36284;BME280;56085;48.910;9.478;2022-11-20T06:27:47;97649.88;;;4.85;94.20
36284;BME280;56085;48.910;9.478;2022-11-20T06:30:12;97646.44;;;4.88;93.77
36284;BME280;56085;48.910;9.478;2022-11-20T06:32:38;97644.84;;;4.87;93.91
36284;BME280;56085;48.910;9.478;2022-11-20T06:35:03;97643.81;;;4.92;93.82
36284;BME280;56085;48.910;9.478;2022-11-20T06:37:29;97647.69;;;4.90;93.93
36284;BME280;56085;48.910;9.478;2022-11-20T06:39:54;97639.47;;;4.90;93.24
36284;BME280;56085;48.910;9.478;2022-11-20T06:42:19;97641.06;;;4.92;93.72
36284;BME280;56085;48.910;9.478;2022-11-20T06:44:45;97644.50;;;4.88;93.39
36284;BME280;56085;48.910;9.478;2022-11-20T06:47:10;97641.06;;;4.92;93.43
36284;BME280;56085;48.910;9.478;2022-11-20T06:49:35;97649.28;;;4.92;93.83
36284;BME280;56085;48.910;9.478;2022-11-20T06:52:02;97656.03;;;4.94;93.23
36284;BME280;56085;48.910;9.478;2022-11-20T06:54:27;97652.28;;;4.99;93.17
36284;BME280;56085;48.910;9.478;2022-11-20T06:56:53;97649.88;;;4.97;93.03
36284;BME280;56085;48.910;9.478;2022-11-20T06:59:18;97647.59;;;4.99;92.96
36284;BME280;56085;48.910;9.478;2022-11-20T07:01:43;97652.75;;;5.01;93.42
36284;BME280;56085;48.910;9.478;2022-11-20T07:04:08;97648.84;;;5.02;93.30
36284;BME280;56085;48.910;9.478;2022-11-20T07:06:34;97658.69;;;5.03;93.50
36284;BME280;56085;48.910;9.478;2022-11-20T07:08:59;97651.16;;;5.00;93.17
36284;BME280;56085;48.910;9.478;2022-11-20T07:11:24;97656.28;;;5.01;92.91
36284;BME280;56085;48.910;9.478;2022-11-20T07:13:50;97661.41;;;5.03;92.86
36284;BME280;56085;48.910;9.478;2022-11-20T07:16:15;97662.22;;;5.03;92.71
36284;BME280;56085;48.910;9.478;2022-11-20T07:18:41;97660.75;;;5.06;93.07
36284;BME280;56085;48.910;9.478;2022-11-20T07:21:08;97659.13;;;5.05;92.73
36284;BME280;56085;48.910;9.478;2022-11-20T07:23:33;97665.88;;;5.07;92.84
36284;BME280;56085;48.910;9.478;2022-11-20T07:26:07;97672.97;;;5.09;93.05
36284;BME280;56085;48.910;9.478;2022-11-20T07:28:32;97669.09;;;5.10;92.74
36284;BME280;56085;48.910;9.478;2022-11-20T07:30:58;97669.66;;;5.15;92.61
36284;BME280;56085;48.910;9.478;2022-11-20T07:33:23;97674.78;;;5.17;92.94
36284;BME280;56085;48.910;9.478;2022-11-20T07:35:49;97676.06;;;5.19;92.79
36284;BME280;56085;48.910;9.478;2022-11-20T07:38:14;97663.28;;;5.23;92.34
36284;BME280;56085;48.910;9.478;2022-11-20T07:40:40;97671.63;;;5.27;92.49
36284;BME280;56085;48.910;9.478;2022-11-20T07:43:05;97673.69;;;5.30;92.86
36284;BME280;56085;48.910;9.478;2022-11-20T07:45:30;97680.19;;;5.38;92.73
36284;BME280;56085;48.910;9.478;2022-11-20T07:47:56;97679.41;;;5.37;92.73
36284;BME280;56085;48.910;9.478;2022-11-20T07:50:21;97675.16;;;5.40;92.07
36284;BME280;56085;48.910;9.478;2022-11-20T07:52:46;97676.66;;;5.37;92.38
36284;BME280;56085;48.910;9.478;2022-11-20T07:55:12;97681.13;;;5.42;92.06
36284;BME280;56085;48.910;9.478;2022-11-20T07:57:37;97688.06;;;5.39;91.58
36284;BME280;56085;48.910;9.478;2022-11-20T08:00:04;97689.44;;;5.33;92.63
36284;BME280;56085;48.910;9.478;2022-11-20T08:02:30;97678.34;;;5.30;91.72
36284;BME280;56085;48.910;9.478;2022-11-20T08:04:55;97688.06;;;5.27;91.95
36284;BME280;56085;48.910;9.478;2022-11-20T08:07:21;97686.81;;;5.24;91.77
36284;BME280;56085;48.910;9.478;2022-11-20T08:09:46;97685.53;;;5.22;92.00
36284;BME280;56085;48.910;9.478;2022-11-20T08:12:19;97690.78;;;5.15;91.54
36284;BME280;56085;48.910;9.478;2022-11-20T08:15:04;97681.06;;;5.05;91.90
36284;BME280;56085;48.910;9.478;2022-11-20T08:17:29;97684.38;;;5.11;92.12
36284;BME280;56085;48.910;9.478;2022-11-20T08:19:55;97690.88;;;5.06;92.07
36284;BME280;56085;48.910;9.478;2022-11-20T08:22:20;97690.63;;;4.99;91.86
36284;BME280;56085;48.910;9.478;2022-11-20T08:24:45;97691.75;;;4.98;91.43
36284;BME280;56085;48.910;9.478;2022-11-20T08:27:11;97691.41;;;4.99;92.14
36284;BME280;56085;48.910;9.478;2022-11-20T08:29:37;97693.38;;;4.99;91.97
36284;BME280;56085;48.910;9.478;2022-11-20T08:32:02;97697.94;;;4.95;92.39
36284;BME280;56085;48.910;9.478;2022-11-20T08:34:27;97700.81;;;4.98;91.38
36284;BME280;56085;48.910;9.478;2022-11-20T08:36:52;97697.59;;;4.96;92.33
36284;BME280;56085;48.910;9.478;2022-11-20T08:39:18;97696.59;;;5.01;92.21
36284;BME280;56085;48.910;9.478;2022-11-20T08:41:43;97693.75;;;5.10;91.74
36284;BME280;56085;48.910;9.478;2022-11-20T08:44:08;97693.28;;;5.07;92.00
36284;BME280;56085;48.910;9.478;2022-11-20T08:46:36;97700.47;;;5.12;91.96
36284;BME280;56085;48.910;9.478;2022-11-20T08:49:03;97704.38;;;5.11;92.81
36284;BME280;56085;48.910;9.478;2022-11-20T08:51:29;97700.13;;;5.14;91.95
36284;BME280;56085;48.910;9.478;2022-11-20T08:53:54;97711.69;;;5.19;92.10
36284;BME280;56085;48.910;9.478;2022-11-20T08:56:20;97707.81;;;5.20;92.54
36284;BME280;56085;48.910;9.478;2022-11-20T08:58:45;97707.91;;;5.24;92.16
36284;BME280;56085;48.910;9.478;2022-11-20T09:01:11;97707.25;;;5.27;92.11
36284;BME280;56085;48.910;9.478;2022-11-20T09:03:36;97699.94;;;5.31;92.06
36284;BME280;56085;48.910;9.478;2022-11-20T09:06:06;97708.63;;;5.33;92.42
36284;BME280;56085;48.910;9.478;2022-11-20T09:08:32;97702.22;;;5.29;92.12
36284;BME280;56085;48.910;9.478;2022-11-20T09:10:58;97705.75;;;5.30;92.57
36284;BME280;56085;48.910;9.478;2022-11-20T09:13:25;97697.53;;;5.30;92.11
36284;BME280;56085;48.910;9.478;2022-11-20T09:16:05;97710.00;;;5.27;92.35
36284;BME280;56085;48.910;9.478;2022-11-20T09:18:31;97708.63;;;5.33;92.52
36284;BME280;56085;48.910;9.478;2022-11-20T09:20:58;97710.09;;;5.31;92.59
36284;BME280;56085;48.910;9.478;2022-11-20T09:23:24;97712.63;;;5.36;92.34
36284;BME280;56085;48.910;9.478;2022-11-20T09:25:49;97715.16;;;5.41;92.27
36284;BME280;56085;48.910;9.478;2022-11-20T09:28:15;97721.91;;;5.44;93.00
36284;BME280;56085;48.910;9.478;2022-11-20T09:30:41;97716.50;;;5.47;92.34
36284;BME280;56085;48.910;9.478;2022-11-20T09:33:06;97726.22;;;5.45;92.93
36284;BME280;56085;48.910;9.478;2022-11-20T09:35:32;97725.44;;;5.44;93.17
36284;BME280;56085;48.910;9.478;2022-11-20T09:37:58;97718.81;;;5.45;92.15
36284;BME280;56085;48.910;9.478;2022-11-20T09:40:26;97716.16;;;5.49;93.02
36284;BME280;56085;48.910;9.478;2022-11-20T09:45:44;97717.88;;;5.53;92.80
36284;BME280;56085;48.910;9.478;2022-11-20T09:51:28;97717.88;;;5.53;93.09
36284;BME280;56085;48.910;9.478;2022-11-20T09:56:33;97728.63;;;5.58;92.86
36284;BME280;56085;48.910;9.478;2022-11-20T09:59:02;97738.47;;;5.59;92.37
36284;BME280;56085;48.910;9.478;2022-11-20T10:01:32;97741.31;;;5.63;93.30
36284;BME280;56085;48.910;9.478;2022-11-20T10:07:13;97732.53;;;5.70;93.19
36284;BME280;56085;48.910;9.478;2022-11-20T10:09:30;97730.38;;;5.75;92.67
36284;BME280;56085;48.910;9.478;2022-11-20T10:12:12;97734.47;;;5.82;93.44
36284;BME280;56085;48.910;9.478;2022-11-20T10:14:53;97728.53;;;5.92;93.51
36284;BME280;56085;48.910;9.478;2022-11-20T10:20:16;97730.81;;;5.90;92.91
36284;BME280;56085;48.910;9.478;2022-11-20T10:23:01;97726.47;;;5.89;93.16
36284;BME280;56085;48.910;9.478;2022-11-20T10:25:39;97722.34;;;5.95;93.49
36284;BME280;56085;48.910;9.478;2022-11-20T10:31:40;97716.84;;;5.95;93.31
36284;BME280;56085;48.910;9.478;2022-11-20T10:34:26;97722.00;;;5.97;93.27
36284;BME280;56085;48.910;9.478;2022-11-20T10:37:01;97725.44;;;5.93;93.30
36284;BME280;56085;48.910;9.478;2022-11-20T10:39:35;97729.78;;;5.94;93.10
36284;BME280;56085;48.910;9.478;2022-11-20T10:42:02;97726.22;;;5.94;93.40
36284;BME280;56085;48.910;9.478;2022-11-20T10:44:28;97727.75;;;5.91;93.18
36284;BME280;56085;48.910;9.478;2022-11-20T10:47:17;97730.69;;;5.86;93.68
36284;BME280;56085;48.910;9.478;2022-11-20T10:49:46;97736.44;;;5.81;93.49
36284;BME280;56085;48.910;9.478;2022-11-20T10:55:28;97730.94;;;5.81;93.57
36284;BME280;56085;48.910;9.478;2022-11-20T10:58:01;97729.34;;;5.80;93.16
36284;BME280;56085;48.910;9.478;2022-11-20T11:00:31;97731.50;;;5.87;93.02
36284;BME280;56085;48.910;9.478;2022-11-20T11:02:57;97726.56;;;5.92;93.66
36284;BME280;56085;48.910;9.478;2022-11-20T11:05:49;97723.97;;;5.96;93.56
36284;BME280;56085;48.910;9.478;2022-11-20T11:08:18;97721.09;;;5.92;93.26
36284;BME280;56085;48.910;9.478;2022-11-20T11:10:59;97725.34;;;5.90;93.34
36284;BME280;56085;48.910;9.478;2022-11-20T11:13:30;97717.34;;;5.97;93.90
36284;BME280;56085;48.910;9.478;2022-11-20T11:15:56;97722.34;;;5.95;93.34
36284;BME280;56085;48.910;9.478;2022-11-20T11:18:30;97719.59;;;5.95;93.34
36284;BME280;56085;48.910;9.478;2022-11-20T11:20:59;97713.09;;;5.87;93.17
36284;BME280;56085;48.910;9.478;2022-11-20T11:23:39;97708.97;;;5.93;93.53
36284;BME280;56085;48.910;9.478;2022-11-20T11:26:18;97711.38;;;5.95;93.74
36284;BME280;56085;48.910;9.478;2022-11-20T11:28:59;97701.09;;;5.92;93.90
36284;BME280;56085;48.910;9.478;2022-11-20T11:31:34;97698.94;;;5.98;93.36
36284;BME280;56085;48.910;9.478;2022-11-20T11:34:07;97690.22;;;5.95;93.42
36284;BME280;56085;48.910;9.478;2022-11-20T11:36:34;97683.59;;;5.97;93.22
36284;BME280;56085;48.910;9.478;2022-11-20T11:39:01;97691.97;;;6.00;93.71
36284;BME280;56085;48.910;9.478;2022-11-20T11:41:30;97687.63;;;5.99;93.56
36284;BME280;56085;48.910;9.478;2022-11-20T11:44:21;97690.59;;;6.06;93.58
36284;BME280;56085;48.910;9.478;2022-11-20T11:47:06;97676.81;;;6.19;93.09
36284;BME280;56085;48.910;9.478;2022-11-20T11:49:34;97682.28;;;6.31;93.31
36284;BME280;56085;48.910;9.478;2022-11-20T11:52:18;97673.91;;;6.40;93.26
36284;BME280;56085;48.910;9.478;2022-11-20T11:54:55;97680.00;;;6.61;93.43
36284;BME280;56085;48.910;9.478;2022-11-20T11:57:39;97666.81;;;7.11;93.54
36284;BME280;56085;48.910;9.478;2022-11-20T12:00:12;97682.69;;;8.01;93.41
36284;BME280;56085;48.910;9.478;2022-11-20T12:05:35;97617.72;;;13.42;94.01
36284;BME280;56085;48.910;9.478;2022-11-20T12:08:09;97616.06;;;12.91;92.92
36284;BME280;56085;48.910;9.478;2022-11-20T12:15:53;97657.16;;;8.60;90.18
36284;BME280;56085;48.910;9.478;2022-11-20T12:18:20;97650.25;;;8.30;89.89
36284;BME280;56085;48.910;9.478;2022-11-20T12:21:11;97651.03;;;7.92;89.51
36284;BME280;56085;48.910;9.478;2022-11-20T12:34:24;97640.88;;;7.60;89.10
36284;BME280;56085;48.910;9.478;2022-11-20T12:37:06;97639.19;;;7.56;89.16
36284;BME280;56085;48.910;9.478;2022-11-20T12:39:50;97639.97;;;7.56;88.53
36284;BME280;56085;48.910;9.478;2022-11-20T12:56:38;97641.06;;;9.28;86.85
36284;BME280;56085;48.910;9.478;2022-11-20T13:01:53;97633.84;;;8.53;86.06
36284;BME280;56085;48.910;9.478;2022-11-20T13:06:53;97626.84;;;8.40;85.61
36284;BME280;56085;48.910;9.478;2022-11-20T13:09:20;97629.66;;;8.44;85.74
36284;BME280;56085;48.910;9.478;2022-11-20T13:11:51;97628.59;;;8.48;85.27
36284;BME280;56085;48.910;9.478;2022-11-20T13:15:04;97618.53;;;8.99;85.01
36284;BME280;56085;48.910;9.478;2022-11-20T13:17:37;97612.69;;;10.38;84.96
36284;BME280;56085;48.910;9.478;2022-11-20T13:20:09;97610.50;;;11.92;84.93
36284;BME280;56085;48.910;9.478;2022-11-20T13:25:26;97689.31;;;12.72;83.19
36284;BME280;56085;48.910;9.478;2022-11-20T13:27:52;97669.13;;;14.59;82.73
36284;BME280;56085;48.910;9.478;2022-11-20T13:30:20;97588.31;;;13.02;81.93
36284;BME280;56085;48.910;9.478;2022-11-20T13:32:58;97607.31;;;11.34;80.71
36284;BME280;56085;48.910;9.478;2022-11-20T13:35:36;97612.72;;;9.81;80.00
36284;BME280;56085;48.910;9.478;2022-11-20T13:38:03;97620.84;;;9.20;79.37
36284;BME280;56085;48.910;9.478;2022-11-20T13:40:29;97613.47;;;8.81;79.29
36284;BME280;56085;48.910;9.478;2022-11-20T13:45:40;97629.16;;;8.38;78.65
36284;BME280;56085;48.910;9.478;2022-11-20T13:48:20;97608.66;;;8.16;78.44
36284;BME280;56085;48.910;9.478;2022-11-20T13:50:56;97611.34;;;8.12;78.39
36284;BME280;56085;48.910;9.478;2022-11-20T13:53:58;97654.78;;;11.37;78.47
36284;BME280;56085;48.910;9.478;2022-11-20T14:01:57;97589.09;;;19.41;77.79
36284;BME280;56085;48.910;9.478;2022-11-20T14:04:46;97615.47;;;20.22;75.79
36284;BME280;56085;48.910;9.478;2022-11-20T14:07:13;97545.13;;;18.85;74.30
36284;BME280;56085;48.910;9.478;2022-11-20T14:09:38;97576.97;;;14.49;72.14
36284;BME280;56085;48.910;9.478;2022-11-20T14:12:19;97588.97;;;12.41;71.04
36284;BME280;56085;48.910;9.478;2022-11-20T14:14:51;97580.25;;;11.10;70.43
36284;BME280;56085;48.910;9.478;2022-11-20T14:19:47;97594.16;;;9.51;69.63
36284;BME280;56085;48.910;9.478;2022-11-20T14:22:24;97584.94;;;8.93;69.79
36284;BME280;56085;48.910;9.478;2022-11-20T14:27:41;97598.66;;;8.47;69.37
36284;BME280;56085;48.910;9.478;2022-11-20T14:30:19;97584.88;;;8.27;69.43
36284;BME280;56085;48.910;9.478;2022-11-20T14:32:46;97593.00;;;8.20;69.41
36284;BME280;56085;48.910;9.478;2022-11-20T14:35:25;97596.56;;;8.01;69.78
36284;BME280;56085;48.910;9.478;2022-11-20T14:37:52;97595.97;;;7.92;69.62